Aérodrome :
LOGIN :

S'inscrire | Disclaimer

   EN    FR    IT 

 










Légende :    VFR   VFR Marginal   IFR   IFR Intensif   IFR Très Intensif
Visi : 
Plafond : 
>= 8 km
>= 3000ft
5 à 8 km
1000 à 3000 ft
1500m à 5 km
500 à 1000 ft
800 à 1500m
200 à 500 ft
< 800m
< 200 ft
Symboles :   Orages  Brouillard  Fortes neiges  Fortes précipitations  Vent > 20 kt
SIGMETs :   Divers  Orages  Givrage  Turbulence  Onde Orograph.  Cendres Volcan.







- Altitude de l'aérodrome : 2220 ft


LOXZ - Zeltweg AB

DERNIER METAR :
  • 251950Z 33005KT 20KM SCT050SC 10/03 Q1008

METARs EXPIRÉS :
  • 251920Z 23008KT 20KM FEW035SC SCT050SC 12/03 Q1007 NOSIG
  • 251850Z 26007KT 20KM FEW035SC 12/03 Q1007 NOSIG
  • 251820Z 23006KT 30KM FEW040SC SCT300CI 12/03 Q1007 NOSIG
  • 251750Z 23006KT 30KM FEW040SC SCT300CI 13/03 Q1007 NOSIG
  • 251720Z 19011KT 30KM FEW040SC 13/03 Q1007 NOSIG

TAF TAF LOXZ
Valide du 25 à 15h jusqu'au 26 à 00h UTC


251415Z 2515/2524 24010KT 9999 FEW040 SCT300
TEMPO 2515/2518 20015G25KT FEW040 SCT050 BKN300
Pas de NOTAMs connus pour ce terrain.



MET'MAP, la Météo Aéronautique d'un coup d'oeil ! - Copyright ORBIFLY Décembre 2007 - Disclaimer

ORBIFLY MET'MAP TEAM :

Programmation & Développement : Alexandra Zaïnal
Conception & Développement : Baudouin d'Aumeries
Co-Programmation & Développement : Marc-Olivier Méhu
Soutien technique & logistique : Manuel Goepfert

Contact : metmap@orbifly.com




SOURCES & CREDITS :

   NOAA